Time;durP1;ratioP1;P1;durP2;ratioP2;P2;SDS_P1;SDS_P2;PMS_P1;PMS_P2;Temp;Humidity;BMP_temperature;BMP_pressure;BME280_temperature;BME280_humidity;BME280_pressure;Samples;Min_cycle;Max_cycle;Signal;HPM_P1;HPM_P2
2021/10/19 00:00:59;;;;;;;3.93;3.13;;;;;;;5.77;84.05;96316.75;5055158;28;20189;-80
2021/10/19 00:03:26;;;;;;;3.63;2.50;;;;;;;5.75;83.85;96305.72;5071948;28;20230;-80
2021/10/19 00:05:51;;;;;;;5.40;3.00;;;;;;;5.69;83.58;96302.59;5053867;28;20208;-79
2021/10/19 00:08:16;;;;;;;2.67;2.20;;;;;;;5.72;83.78;96296.41;5055118;28;20209;-80
2021/10/19 00:10:42;;;;;;;3.13;2.67;;;;;;;5.74;82.62;96299.69;5055291;28;20204;-80
2021/10/19 00:13:07;;;;;;;3.13;2.40;;;;;;;5.83;81.71;96299.13;5071723;28;20181;-80
2021/10/19 00:15:32;;;;;;;2.50;2.30;;;;;;;5.94;81.07;96295.88;5054344;28;20174;-80
2021/10/19 00:17:58;;;;;;;4.03;2.17;;;;;;;5.94;80.57;96291.53;5054811;28;20264;-80
2021/10/19 00:20:23;;;;;;;3.90;2.00;;;;;;;6.09;78.79;96294.00;5071772;28;20182;-80
2021/10/19 00:22:48;;;;;;;2.40;2.20;;;;;;;6.20;78.03;96289.00;5071821;28;20244;-80
2021/10/19 00:25:17;;;;;;;2.10;1.90;;;;;;;6.25;77.01;96274.00;5055682;28;20213;-80
2021/10/19 00:27:43;;;;;;;3.00;2.13;;;;;;;6.31;76.41;96276.19;5058484;28;20238;-80
2021/10/19 00:30:12;;;;;;;2.47;2.13;;;;;;;6.36;75.57;96279.28;5058097;28;20283;-80
2021/10/19 00:32:39;;;;;;;2.57;1.67;;;;;;;6.43;75.13;96277.09;5058162;28;20181;-80
2021/10/19 00:35:05;;;;;;;2.73;2.27;;;;;;;6.60;74.24;96276.78;5055701;28;20689;-81
2021/10/19 00:37:30;;;;;;;2.73;2.10;;;;;;;6.58;75.10;96273.47;5038454;28;20182;-79
2021/10/19 00:39:55;;;;;;;2.20;2.00;;;;;;;6.50;75.65;96274.00;5055580;28;20220;-81
2021/10/19 00:42:21;;;;;;;2.20;2.00;;;;;;;6.51;75.14;96273.06;5054258;28;20185;-79
2021/10/19 00:44:46;;;;;;;2.77;2.10;;;;;;;6.57;74.08;96274.41;5037373;28;20829;-80
2021/10/19 00:47:19;;;;;;;2.00;1.80;;;;;;;6.66;73.42;96280.69;5024199;28;20190;-81
2021/10/19 00:49:44;;;;;;;2.73;1.90;;;;;;;6.79;71.64;96269.41;5056725;28;20207;-80
2021/10/19 00:52:10;;;;;;;2.03;1.60;;;;;;;6.81;72.01;96271.91;5076822;28;20186;-81
2021/10/19 00:54:35;;;;;;;3.23;2.30;;;;;;;6.84;71.90;96268.28;5019439;28;20269;-80
2021/10/19 00:57:01;;;;;;;3.60;1.93;;;;;;;6.86;71.93;96266.41;5036595;28;20250;-80
2021/10/19 00:59:26;;;;;;;2.10;2.00;;;;;;;6.86;71.95;96266.41;5036653;28;20202;-80
2021/10/19 01:01:52;;;;;;;2.23;1.97;;;;;;;6.84;72.32;96258.78;5019957;28;20225;-81
2021/10/19 01:04:17;;;;;;;2.13;1.80;;;;;;;6.80;72.61;96258.19;5053677;28;20217;-81
2021/10/19 01:06:42;;;;;;;2.77;1.93;;;;;;;6.75;73.12;96260.25;5035568;28;20185;-80
2021/10/19 01:09:09;;;;;;;2.43;1.90;;;;;;;6.75;73.16;96274.91;5036413;28;20254;-81
2021/10/19 01:11:34;;;;;;;2.20;2.00;;;;;;;6.67;74.04;96269.44;5036510;28;20189;-80
2021/10/19 01:13:59;;;;;;;2.07;1.87;;;;;;;6.70;73.44;96266.63;5019806;28;20186;-80
2021/10/19 01:16:25;;;;;;;3.93;2.27;;;;;;;6.66;73.92;96265.22;5036742;28;20209;-81
2021/10/19 01:18:50;;;;;;;3.30;2.30;;;;;;;6.59;74.17;96262.22;5055666;28;20194;-81
2021/10/19 01:21:15;;;;;;;2.73;2.07;;;;;;;6.56;74.45;96265.03;5053750;28;20209;-81
2021/10/19 01:23:41;;;;;;;1.70;1.60;;;;;;;6.59;74.33;96263.97;5020383;28;20181;-82
2021/10/19 01:26:08;;;;;;;2.13;1.70;;;;;;;6.60;74.25;96269.03;5053892;28;20177;-81
2021/10/19 01:28:35;;;;;;;2.27;2.07;;;;;;;6.58;74.57;96280.41;5027150;28;20210;-81
2021/10/19 01:31:00;;;;;;;2.33;2.13;;;;;;;6.51;74.96;96282.56;5037717;28;20186;-80
2021/10/19 01:33:27;;;;;;;2.00;1.70;;;;;;;6.50;76.62;96274.00;5037317;28;20224;-82
2021/10/19 01:35:52;;;;;;;2.90;1.90;;;;;;;6.58;76.51;96259.75;5053399;28;20178;-80
2021/10/19 01:38:21;;;;;;;3.53;1.90;;;;;;;6.74;74.64;96258.59;5020245;28;20204;-79
2021/10/19 01:40:47;;;;;;;2.70;1.90;;;;;;;6.88;73.14;96260.19;5037499;28;20178;-79
2021/10/19 01:43:14;;;;;;;1.80;1.70;;;;;;;6.99;72.71;96254.31;5037327;28;20182;-81
2021/10/19 01:45:41;;;;;;;2.67;1.70;;;;;;;7.07;72.69;96247.66;5036264;28;20202;-82
2021/10/19 01:48:06;;;;;;;2.17;1.90;;;;;;;7.19;72.14;96250.28;5020623;28;20189;-80
2021/10/19 01:50:31;;;;;;;2.37;1.63;;;;;;;7.34;71.25;96250.03;5037054;28;20183;-81
2021/10/19 01:52:57;;;;;;;2.13;1.93;;;;;;;7.37;71.44;96252.38;5020774;28;20193;-82
2021/10/19 01:55:22;;;;;;;1.60;1.40;;;;;;;7.37;71.60;96259.31;5035993;28;20542;-81
2021/10/19 01:57:48;;;;;;;3.07;1.90;;;;;;;7.42;71.61;96266.72;5053716;28;20178;-81
2021/10/19 02:00:13;;;;;;;2.40;1.77;;;;;;;7.45;71.97;96267.34;5020499;28;20198;-80
2021/10/19 02:02:39;;;;;;;2.17;1.60;;;;;;;7.47;72.21;96262.88;5036929;28;20189;-81
2021/10/19 02:05:06;;;;;;;2.07;1.87;;;;;;;7.47;73.00;96256.88;5018601;28;20213;-82
2021/10/19 02:07:31;;;;;;;2.20;1.70;;;;;;;7.43;73.44;96252.88;5020515;28;20610;-81
2021/10/19 02:09:56;;;;;;;2.00;1.90;;;;;;;7.44;74.25;96252.75;5019736;28;20202;-81
2021/10/19 02:12:22;;;;;;;2.43;1.73;;;;;;;7.41;74.94;96260.72;5037282;28;20204;-81
2021/10/19 02:14:47;;;;;;;2.13;1.93;;;;;;;7.42;75.43;96261.53;5053976;28;20177;-81
2021/10/19 02:17:12;;;;;;;3.43;1.90;;;;;;;7.37;75.92;96261.88;5036840;28;20174;-81
2021/10/19 02:19:38;;;;;;;2.43;2.00;;;;;;;7.31;75.96;96265.72;5019918;28;20193;-81
2021/10/19 02:22:03;;;;;;;2.03;1.83;;;;;;;7.28;76.69;96257.38;5020235;28;20641;-81
2021/10/19 02:24:28;;;;;;;2.03;1.77;;;;;;;7.23;77.21;96255.13;5053846;28;20213;-81
2021/10/19 02:26:54;;;;;;;2.47;1.83;;;;;;;7.18;77.51;96244.31;5054526;28;20174;-82
2021/10/19 02:29:20;;;;;;;2.63;1.80;;;;;;;7.22;77.32;96250.06;5054691;28;20345;-81
2021/10/19 02:31:46;;;;;;;2.00;1.60;;;;;;;7.26;76.57;96242.00;5036691;28;20176;-82
2021/10/19 02:34:12;;;;;;;2.97;1.93;;;;;;;7.31;76.21;96244.22;5053711;28;20173;-82
2021/10/19 02:36:38;;;;;;;1.83;1.63;;;;;;;7.32;76.10;96238.13;5020344;28;20189;-81
2021/10/19 02:39:05;;;;;;;2.33;2.00;;;;;;;7.31;76.40;96229.56;5054392;28;20194;-82
2021/10/19 02:41:30;;;;;;;2.77;2.00;;;;;;;7.31;76.76;96231.31;5036757;28;20295;-81
2021/10/19 02:43:56;;;;;;;1.57;1.47;;;;;;;7.27;76.76;96222.97;5035412;28;20260;-81
2021/10/19 02:46:24;;;;;;;2.00;1.80;;;;;;;7.26;77.22;96223.09;5020284;28;20181;-82
2021/10/19 02:48:49;;;;;;;3.60;1.93;;;;;;;7.23;77.96;96228.47;5037621;28;20189;-82
2021/10/19 02:51:15;;;;;;;1.83;1.67;;;;;;;7.25;77.56;96229.19;5042813;28;20186;-80
2021/10/19 02:53:40;;;;;;;1.93;1.80;;;;;;;7.26;77.56;96229.09;5050519;28;20668;-80
2021/10/19 02:56:05;;;;;;;2.13;1.93;;;;;;;7.36;76.72;96234.41;5035493;28;20165;-81
2021/10/19 02:58:30;;;;;;;2.83;1.87;;;;;;;7.41;76.39;96232.28;5035601;28;20202;-81
2021/10/19 03:00:56;;;;;;;2.03;1.80;;;;;;;7.49;75.40;96227.41;5050920;28;20184;-81
2021/10/19 03:03:21;;;;;;;2.27;1.70;;;;;;;7.79;72.31;96220.91;5034737;28;20186;-81
2021/10/19 03:05:46;;;;;;;4.03;1.90;;;;;;;7.76;72.73;96223.72;5032017;28;20235;-80
2021/10/19 03:08:12;;;;;;;2.13;1.93;;;;;;;7.84;71.56;96234.31;5050570;28;20201;-81
2021/10/19 03:10:37;;;;;;;2.80;1.63;;;;;;;7.83;72.01;96235.25;5034795;28;20184;-80
2021/10/19 03:13:02;;;;;;;2.63;1.47;;;;;;;7.91;71.97;96236.34;5050786;28;20607;-80
2021/10/19 03:15:28;;;;;;;2.00;1.80;;;;;;;8.01;70.48;96227.88;5050900;28;20173;-80
2021/10/19 03:17:53;;;;;;;2.37;1.87;;;;;;;8.03;70.62;96231.19;5067253;28;20182;-80
2021/10/19 03:20:18;;;;;;;2.17;1.80;;;;;;;8.12;69.67;96230.47;5051732;28;20181;-81
2021/10/19 03:22:44;;;;;;;1.97;1.60;;;;;;;8.12;70.38;96231.31;5050955;28;20174;-81
2021/10/19 03:25:09;;;;;;;2.70;2.07;;;;;;;8.12;70.24;96241.66;5051274;28;20454;-80
2021/10/19 03:27:35;;;;;;;2.47;1.77;;;;;;;8.13;70.04;96238.16;5052243;28;20170;-80
2021/10/19 03:30:00;;;;;;;2.47;1.87;;;;;;;8.16;69.89;96240.50;5050537;28;20252;-81
2021/10/19 03:32:25;;;;;;;1.60;1.30;;;;;;;8.18;69.69;96235.19;5056597;28;20222;-81
2021/10/19 03:34:50;;;;;;;2.17;1.90;;;;;;;8.24;70.41;96238.16;5049897;28;20174;-80
2021/10/19 03:37:16;;;;;;;2.00;1.70;;;;;;;8.20;71.13;96244.50;5017126;28;20182;-80
2021/10/19 03:39:41;;;;;;;1.80;1.60;;;;;;;8.20;71.13;96248.84;5033545;28;20201;-80
2021/10/19 03:42:07;;;;;;;2.00;1.73;;;;;;;8.19;71.54;96242.84;5033462;28;20652;-80
2021/10/19 03:44:32;;;;;;;1.87;1.50;;;;;;;8.18;71.96;96241.19;5016277;28;20232;-80
2021/10/19 03:46:57;;;;;;;2.40;1.53;;;;;;;8.15;72.28;96238.03;5033255;28;20544;-81
2021/10/19 03:49:23;;;;;;;2.27;1.73;;;;;;;8.14;72.26;96244.16;5017045;28;20201;-81
2021/10/19 03:51:48;;;;;;;2.67;2.00;;;;;;;8.15;72.22;96241.44;5051208;28;20706;-81
2021/10/19 03:54:13;;;;;;;3.30;2.10;;;;;;;8.15;72.64;96243.22;5032985;28;20193;-80
2021/10/19 03:56:39;;;;;;;5.23;3.07;;;;;;;8.12;73.19;96243.41;5019771;28;20193;-79
2021/10/19 03:59:04;;;;;;;4.50;3.33;;;;;;;8.09;73.85;96249.66;5064114;28;20228;-81
2021/10/19 04:01:29;;;;;;;3.83;1.90;;;;;;;8.13;73.90;96239.91;5050784;28;20242;-80
2021/10/19 04:03:55;;;;;;;2.30;1.80;;;;;;;8.22;73.38;96244.41;5051698;28;20170;-80
2021/10/19 04:06:20;;;;;;;2.13;1.77;;;;;;;8.30;73.19;96254.13;5054271;28;20200;-80
2021/10/19 04:08:45;;;;;;;1.80;1.60;;;;;;;8.38;72.82;96244.88;5053779;28;20210;-81
2021/10/19 04:11:11;;;;;;;2.13;1.63;;;;;;;8.57;71.54;96239.16;5054633;28;20216;-81
2021/10/19 04:13:36;;;;;;;2.10;1.90;;;;;;;8.59;71.61;96242.44;5052935;28;20664;-80
2021/10/19 04:16:02;;;;;;;2.90;1.60;;;;;;;8.67;71.13;96241.84;5053268;28;20189;-80
2021/10/19 04:18:27;;;;;;;3.03;2.10;;;;;;;8.67;71.62;96247.84;5036687;28;20665;-81
2021/10/19 04:20:55;;;;;;;1.97;1.70;;;;;;;8.67;71.16;96259.97;5036872;28;20234;-80
2021/10/19 04:23:20;;;;;;;1.80;1.43;;;;;;;8.72;70.67;96250.06;5053750;28;20181;-80
2021/10/19 04:25:45;;;;;;;2.00;1.80;;;;;;;8.71;70.74;96249.25;5034633;28;20213;-80
2021/10/19 04:28:10;;;;;;;2.30;1.97;;;;;;;8.78;70.75;96252.19;5053302;28;20278;-80
2021/10/19 04:30:37;;;;;;;2.73;1.70;;;;;;;8.84;70.26;96253.47;5053392;28;20185;-80
2021/10/19 04:33:02;;;;;;;2.63;1.97;;;;;;;8.83;70.65;96251.81;5053396;28;20178;-81
2021/10/19 04:35:27;;;;;;;1.73;1.60;;;;;;;8.84;70.71;96250.91;5052615;28;20268;-81
2021/10/19 04:37:53;;;;;;;2.50;1.90;;;;;;;8.84;70.70;96253.47;5036455;28;20185;-81
2021/10/19 04:40:18;;;;;;;3.03;1.80;;;;;;;8.83;71.20;96252.63;5053525;28;20188;-81
2021/10/19 04:42:43;;;;;;;2.10;1.90;;;;;;;8.93;70.14;96257.94;5053124;28;20320;-83
2021/10/19 04:45:10;;;;;;;4.03;2.00;;;;;;;8.93;70.25;96263.13;5035771;28;20206;-81
2021/10/19 04:47:35;;;;;;;2.10;1.73;;;;;;;8.98;71.06;96261.81;5053470;28;20551;-80
2021/10/19 04:50:00;;;;;;;5.10;1.87;;;;;;;9.00;71.87;96266.84;5053105;28;20201;-80
2021/10/19 04:52:27;;;;;;;2.73;2.10;;;;;;;8.98;72.81;96276.53;5036553;28;20197;-80
2021/10/19 04:54:52;;;;;;;3.13;1.93;;;;;;;8.95;74.27;96272.41;5052538;28;20256;-80
2021/10/19 04:57:18;;;;;;;2.13;1.90;;;;;;;8.90;76.29;96271.13;5036683;28;20247;-81
2021/10/19 04:59:43;;;;;;;2.63;1.77;;;;;;;8.85;77.26;96265.50;5053294;28;20693;-80
2021/10/19 05:02:08;;;;;;;5.03;2.30;;;;;;;8.76;77.92;96267.84;5035844;28;20277;-80
2021/10/19 05:04:33;;;;;;;2.30;2.00;;;;;;;8.69;79.27;96266.66;5036183;28;20267;-80
2021/10/19 05:06:59;;;;;;;2.77;2.17;;;;;;;8.64;80.32;96262.78;5036972;28;20616;-80
2021/10/19 05:09:24;;;;;;;3.87;2.73;;;;;;;8.59;82.78;96260.56;5053726;28;20686;-80
2021/10/19 05:11:49;;;;;;;3.83;2.50;;;;;;;8.54;82.73;96264.44;5053420;28;20186;-84
2021/10/19 05:14:15;;;;;;;2.47;2.10;;;;;;;8.47;83.77;96257.13;5035233;28;20178;-85
2021/10/19 05:16:40;;;;;;;2.23;2.03;;;;;;;8.45;83.71;96261.59;5035718;28;20186;-80
2021/10/19 05:19:05;;;;;;;3.80;2.60;;;;;;;8.42;84.62;96254.06;5036464;28;20197;-80
2021/10/19 05:21:31;;;;;;;3.77;3.30;;;;;;;8.39;84.48;96269.84;5035862;28;20190;-81
2021/10/19 05:23:56;;;;;;;4.87;3.30;;;;;;;8.37;84.72;96258.78;5051462;28;20200;-80
2021/10/19 05:26:21;;;;;;;5.53;3.23;;;;;;;8.38;84.99;96259.59;5033923;28;20648;-80
2021/10/19 05:28:47;;;;;;;6.57;2.93;;;;;;;8.36;84.53;96258.91;5035537;28;20247;-80
2021/10/19 05:31:12;;;;;;;8.30;3.73;;;;;;;8.36;85.32;96264.06;5035658;28;20174;-81
2021/10/19 05:33:37;;;;;;;8.37;5.00;;;;;;;8.35;85.47;96259.84;5051433;28;20189;-81
2021/10/19 05:36:03;;;;;;;8.20;4.20;;;;;;;8.35;85.96;96257.25;5052395;28;20586;-81
2021/10/19 05:38:31;;;;;;;5.87;3.93;;;;;;;8.34;85.83;96255.56;5052332;28;20655;-80
2021/10/19 05:40:57;;;;;;;6.13;3.87;;;;;;;8.34;86.09;96252.97;5034223;28;20185;-82
2021/10/19 05:43:22;;;;;;;5.10;3.50;;;;;;;8.33;85.92;96247.00;5035876;28;20205;-81
2021/10/19 05:45:47;;;;;;;5.80;3.77;;;;;;;8.32;86.96;96252.28;5037449;28;20205;-82
2021/10/19 05:48:13;;;;;;;3.93;2.70;;;;;;;8.36;86.36;96248.53;5045660;28;20706;-81
2021/10/19 05:50:38;;;;;;;3.97;2.80;;;;;;;8.42;86.06;96248.09;5054230;28;20185;-80
2021/10/19 05:53:03;;;;;;;3.70;3.17;;;;;;;8.49;85.67;96249.25;5068117;28;20176;-80
2021/10/19 05:55:29;;;;;;;4.47;3.13;;;;;;;8.54;85.89;96257.47;5055272;28;20264;-83
2021/10/19 05:57:54;;;;;;;3.77;3.03;;;;;;;8.58;85.63;96255.50;5053481;28;20617;-81
2021/10/19 06:00:19;;;;;;;3.90;3.17;;;;;;;8.59;85.77;96264.91;5057828;28;20185;-82
2021/10/19 06:02:44;;;;;;;4.53;3.83;;;;;;;8.57;85.50;96270.22;5071541;28;20189;-82
2021/10/19 06:05:10;;;;;;;4.50;3.67;;;;;;;8.60;85.79;96259.63;5055401;28;20228;-82
2021/10/19 06:07:35;;;;;;;3.80;3.20;;;;;;;8.62;85.34;96262.06;5055811;28;20188;-82
2021/10/19 06:10:01;;;;;;;7.33;4.30;;;;;;;8.64;85.78;96263.59;5071351;28;20672;-82
2021/10/19 06:12:27;;;;;;;5.27;4.23;;;;;;;8.65;85.80;96254.88;5071984;28;20209;-83
2021/10/19 06:14:52;;;;;;;4.73;3.67;;;;;;;8.68;86.27;96256.44;5055718;28;20177;-81
2021/10/19 06:17:18;;;;;;;7.67;4.03;;;;;;;8.70;86.01;96252.78;5056341;28;20716;-80
2021/10/19 06:19:43;;;;;;;6.93;3.90;;;;;;;8.79;85.45;96253.81;5055996;28;20269;-81
2021/10/19 06:22:08;;;;;;;5.07;3.80;;;;;;;8.84;84.76;96250.91;5054769;28;20235;-81
2021/10/19 06:24:34;;;;;;;3.30;2.80;;;;;;;8.90;85.26;96258.16;5058856;28;20205;-81
2021/10/19 06:26:59;;;;;;;2.60;2.40;;;;;;;8.92;84.81;96270.06;5073919;28;20177;-80
2021/10/19 06:29:24;;;;;;;3.03;2.73;;;;;;;9.09;82.82;96266.97;5055949;28;20201;-82
2021/10/19 06:31:50;;;;;;;3.53;2.77;;;;;;;9.14;82.33;96270.97;5056992;28;20196;-80
2021/10/19 06:34:15;;;;;;;3.87;2.80;;;;;;;9.18;82.22;96278.38;5058431;28;20178;-82
2021/10/19 06:36:40;;;;;;;2.10;1.90;;;;;;;9.20;82.39;96273.09;5054500;28;20196;-81
2021/10/19 06:39:06;;;;;;;2.57;2.37;;;;;;;9.28;81.68;96274.13;5047911;28;20258;-81
2021/10/19 06:41:31;;;;;;;2.90;2.50;;;;;;;9.41;80.42;96279.16;5040902;28;20222;-82
2021/10/19 06:43:57;;;;;;;2.57;2.37;;;;;;;9.46;79.81;96286.56;5055914;28;20226;-84
2021/10/19 06:46:23;;;;;;;2.90;2.40;;;;;;;9.56;78.73;96282.28;5069382;28;20181;-82
2021/10/19 06:48:48;;;;;;;2.83;2.07;;;;;;;9.62;78.25;96285.19;5057924;28;20201;-82
2021/10/19 06:51:14;;;;;;;2.40;2.20;;;;;;;9.69;77.06;96298.50;5056032;28;20199;-83
2021/10/19 06:53:39;;;;;;;3.13;2.40;;;;;;;9.75;77.62;96299.78;5061895;28;20184;-82
2021/10/19 06:56:05;;;;;;;2.73;2.53;;;;;;;9.78;77.94;96297.75;5071392;28;20184;-83
2021/10/19 06:58:30;;;;;;;2.77;2.20;;;;;;;9.80;77.43;96301.03;5055770;28;20212;-81
2021/10/19 07:00:56;;;;;;;3.23;2.10;;;;;;;9.88;77.24;96301.25;5063925;28;20189;-81
2021/10/19 07:03:24;;;;;;;3.47;2.63;;;;;;;9.94;77.30;96310.31;5049717;28;20191;-80
2021/10/19 07:05:49;;;;;;;3.03;2.57;;;;;;;10.02;76.63;96320.06;5071939;28;20303;-81
2021/10/19 07:08:15;;;;;;;2.40;2.00;;;;;;;9.98;77.32;96329.84;5052064;28;20200;-82
2021/10/19 07:10:40;;;;;;;4.00;2.87;;;;;;;10.07;76.61;96333.47;5073247;28;20189;-82
2021/10/19 07:13:05;;;;;;;4.03;2.73;;;;;;;10.12;76.46;96331.34;5064994;28;20203;-82
2021/10/19 07:15:34;;;;;;;3.20;2.53;;;;;;;10.28;75.50;96330.94;5054564;28;20181;-82
2021/10/19 07:18:06;;;;;;;4.23;2.93;;;;;;;10.24;76.37;96327.75;5046010;28;20183;-82
2021/10/19 07:20:33;;;;;;;3.27;2.70;;;;;;;10.20;77.32;96329.75;5056850;28;20269;-83
2021/10/19 07:23:01;;;;;;;3.30;3.00;;;;;;;10.17;78.13;96318.81;5060842;28;20268;-82
2021/10/19 07:25:27;;;;;;;4.33;3.93;;;;;;;10.23;79.30;96322.69;5041120;28;20680;-81
2021/10/19 07:27:52;;;;;;;5.93;4.07;;;;;;;10.15;80.17;96325.88;5072504;28;20253;-81
2021/10/19 07:30:18;;;;;;;3.70;3.40;;;;;;;10.13;81.15;96307.84;5048165;28;20238;-82
2021/10/19 07:32:44;;;;;;;3.10;2.80;;;;;;;10.15;81.71;96307.72;5068084;28;20552;-81
2021/10/19 07:35:09;;;;;;;3.00;2.70;;;;;;;10.16;81.62;96307.63;5057266;28;20234;-82
2021/10/19 07:37:38;;;;;;;3.17;2.40;;;;;;;10.26;81.39;96310.31;5052598;28;20192;-83
2021/10/19 07:48:59;;;;;;;;;;;;;;;;;;;;;
2021/10/19 07:51:29;;;;;;;3.20;2.53;;;;;;;11.14;76.17;96304.56;5085065;28;20176;-82
2021/10/19 07:53:59;;;;;;;2.60;2.40;;;;;;;11.25;76.29;96291.44;5065574;28;20263;-82
2021/10/19 07:56:27;;;;;;;3.20;2.53;;;;;;;11.37;76.13;96297.34;5076611;28;20263;-82
2021/10/19 07:59:05;;;;;;;;;;;;;;;;;;;;;
2021/10/19 08:01:33;;;;;;;3.60;2.67;;;;;;;11.60;75.26;96305.75;5090828;28;20807;-81
2021/10/19 08:03:58;;;;;;;3.77;2.67;;;;;;;11.68;75.36;96307.66;5089618;28;20175;-81
2021/10/19 08:06:24;;;;;;;3.10;2.80;;;;;;;11.64;74.80;96291.50;5076973;28;20180;-81
2021/10/19 08:08:55;;;;;;;3.27;2.60;;;;;;;11.75;74.01;96298.34;5087710;28;20211;-82
2021/10/19 08:11:21;;;;;;;4.13;2.57;;;;;;;11.88;73.58;96298.94;5075533;28;20247;-81
2021/10/19 08:13:46;;;;;;;2.47;2.20;;;;;;;11.99;73.08;96295.38;5062324;28;20267;-82
2021/10/19 08:16:12;;;;;;;3.00;2.23;;;;;;;12.16;72.23;96297.25;5095956;28;20179;-81
2021/10/19 08:18:38;;;;;;;3.30;2.50;;;;;;;12.20;72.16;96298.66;5078554;28;20291;-81
2021/10/19 08:21:03;;;;;;;4.80;3.00;;;;;;;12.34;72.18;96303.41;5079724;28;20247;-82
2021/10/19 08:23:28;;;;;;;3.93;2.73;;;;;;;12.34;71.95;96299.97;5065949;28;20551;-83
2021/10/19 08:25:54;;;;;;;3.17;2.40;;;;;;;12.34;71.68;96297.38;5094677;28;20697;-82
2021/10/19 08:28:24;;;;;;;2.50;2.30;;;;;;;12.40;71.61;96309.84;5069829;28;20730;-83
2021/10/19 08:30:51;;;;;;;2.63;2.00;;;;;;;12.37;71.67;96308.34;5080883;28;20183;-82
2021/10/19 08:33:17;;;;;;;2.00;1.80;;;;;;;12.49;71.59;96306.41;5087704;28;20248;-83
2021/10/19 08:35:43;;;;;;;2.10;1.93;;;;;;;12.55;70.67;96313.66;5075965;28;20678;-83
2021/10/19 08:38:10;;;;;;;2.47;2.00;;;;;;;12.65;70.90;96306.63;5097672;28;20658;-84
2021/10/19 08:40:35;;;;;;;5.10;2.07;;;;;;;12.54;71.74;96306.78;5088134;28;20584;-84
2021/10/19 08:43:01;;;;;;;2.17;1.63;;;;;;;12.59;71.96;96303.78;5070141;28;20215;-82
2021/10/19 08:45:30;;;;;;;2.13;1.60;;;;;;;12.61;72.82;96307.03;5077827;28;20286;-82
2021/10/19 08:47:55;;;;;;;1.77;1.67;;;;;;;12.54;74.08;96298.97;5078964;28;20566;-83
2021/10/19 08:50:23;;;;;;;4.63;1.67;;;;;;;12.60;74.32;96310.63;5069796;28;20176;-82
2021/10/19 08:52:49;;;;;;;2.03;1.87;;;;;;;12.59;74.36;96299.38;5066558;28;20314;-82
2021/10/19 08:55:14;;;;;;;2.23;1.53;;;;;;;12.64;75.46;96307.59;5064285;28;20463;-82
2021/10/19 08:57:39;;;;;;;2.73;1.97;;;;;;;12.59;75.11;96301.16;5081923;28;20184;-82
2021/10/19 09:00:07;;;;;;;2.13;1.93;;;;;;;12.53;75.36;96294.72;5081333;28;20204;-83
2021/10/19 09:02:36;;;;;;;2.00;1.90;;;;;;;12.51;75.62;96301.88;5065561;28;20524;-83
2021/10/19 09:05:07;;;;;;;3.53;2.03;;;;;;;12.50;76.23;96294.19;5078242;28;20211;-84
2021/10/19 09:07:32;;;;;;;2.63;2.43;;;;;;;12.48;76.19;96291.72;5095275;28;20203;-83
2021/10/19 09:09:57;;;;;;;2.90;2.50;;;;;;;12.32;75.81;96284.50;5089543;28;20800;-82
2021/10/19 09:12:23;;;;;;;3.77;2.50;;;;;;;12.24;76.09;96278.34;5066945;28;20206;-82
2021/10/19 09:14:49;;;;;;;4.27;2.50;;;;;;;12.36;75.73;96278.03;5073784;28;20193;-83
2021/10/19 09:17:14;;;;;;;2.67;2.37;;;;;;;12.39;76.07;96282.97;5088040;28;20186;-84
2021/10/19 09:19:41;;;;;;;3.00;2.70;;;;;;;12.43;76.52;96271.31;5076459;28;20200;-82
2021/10/19 09:22:11;;;;;;;2.47;2.03;;;;;;;12.52;76.66;96264.44;5075447;28;20176;-81
2021/10/19 09:24:41;;;;;;;3.83;2.20;;;;;;;12.49;77.31;96269.94;5068257;28;20196;-83
2021/10/19 09:27:12;;;;;;;3.83;2.10;;;;;;;12.58;77.81;96278.69;5085643;28;20181;-81
2021/10/19 09:29:46;;;;;;;4.13;2.23;;;;;;;12.68;78.54;96285.50;5076651;28;20218;-81
2021/10/19 09:32:13;;;;;;;2.50;2.30;;;;;;;12.78;78.27;96277.63;5062386;28;20666;-83
2021/10/19 09:34:40;;;;;;;5.37;4.07;;;;;;;12.77;77.70;96282.03;5067993;28;20208;-81
2021/10/19 09:37:08;;;;;;;2.87;2.40;;;;;;;12.72;78.43;96276.44;5083366;28;20263;-82
2021/10/19 09:39:38;;;;;;;2.60;2.40;;;;;;;12.85;77.63;96283.94;5074760;28;20299;-82
2021/10/19 09:42:18;;;;;;;3.37;2.27;;;;;;;12.82;76.88;96286.00;5072819;28;20180;-83
2021/10/19 09:45:00;;;;;;;2.90;2.57;;;;;;;12.80;77.12;96272.28;5063492;28;20245;-82
2021/10/19 09:47:28;;;;;;;3.57;2.57;;;;;;;12.75;76.80;96275.31;5080241;28;20659;-82
2021/10/19 09:49:54;;;;;;;3.10;2.77;;;;;;;12.70;77.12;96274.91;5095859;28;20212;-80
2021/10/19 09:52:19;;;;;;;5.17;2.87;;;;;;;12.61;77.76;96281.81;5091604;28;20179;-85
2021/10/19 09:54:45;;;;;;;4.10;2.70;;;;;;;12.52;78.00;96287.06;5068195;28;20211;-86
2021/10/19 09:57:10;;;;;;;2.87;2.63;;;;;;;12.57;78.00;96277.88;5070425;28;20271;-81
2021/10/19 09:59:36;;;;;;;3.03;2.67;;;;;;;12.59;77.71;96275.94;5078194;28;20679;-80
2021/10/19 10:02:02;;;;;;;5.47;2.67;;;;;;;12.55;77.91;96271.97;5071575;28;20250;-80
2021/10/19 10:04:28;;;;;;;10.23;2.90;;;;;;;12.76;77.53;96269.97;5058991;28;20193;-81
2021/10/19 10:06:54;;;;;;;3.10;2.80;;;;;;;12.71;77.54;96264.34;5085601;28;20221;-80
2021/10/19 10:09:22;;;;;;;5.47;2.63;;;;;;;12.88;77.44;96270.59;5063454;28;20643;-80
2021/10/19 10:11:47;;;;;;;3.03;2.70;;;;;;;12.63;78.04;96261.66;5062010;28;20188;-80
2021/10/19 10:14:14;;;;;;;4.87;2.77;;;;;;;12.82;77.73;96262.56;5076143;28;20191;-81
2021/10/19 10:16:45;;;;;;;5.17;3.10;;;;;;;12.77;78.53;96266.41;5071059;28;20204;-81
2021/10/19 10:19:15;;;;;;;2.87;2.57;;;;;;;12.69;78.85;96263.69;5072073;28;20208;-82
2021/10/19 10:21:49;;;;;;;2.90;2.70;;;;;;;12.82;78.36;96263.38;5075945;28;20606;-81
2021/10/19 10:24:15;;;;;;;2.97;2.77;;;;;;;13.07;77.53;96256.63;5079335;28;20180;-80
2021/10/19 10:26:40;;;;;;;3.87;3.10;;;;;;;13.04;77.87;96259.56;5068778;28;20198;-82
2021/10/19 10:29:11;;;;;;;3.57;2.97;;;;;;;13.37;76.93;96262.56;5105294;28;20203;-82
2021/10/19 10:31:51;;;;;;;3.27;2.97;;;;;;;13.53;76.40;96258.31;5060041;28;20266;-81
2021/10/19 10:34:16;;;;;;;3.20;2.67;;;;;;;13.59;75.57;96262.13;5061903;28;20526;-80
2021/10/19 10:36:47;;;;;;;3.27;2.73;;;;;;;13.57;75.38;96249.22;5058282;28;20184;-80
2021/10/19 10:39:13;;;;;;;6.13;2.97;;;;;;;13.82;74.84;96254.66;5071316;28;20204;-81
2021/10/19 10:41:47;;;;;;;3.47;2.80;;;;;;;13.89;74.79;96256.53;5073834;28;20603;-80
2021/10/19 10:44:13;;;;;;;3.37;2.60;;;;;;;13.88;73.71;96257.50;5079082;28;20196;-81
2021/10/19 10:46:40;;;;;;;5.63;2.60;;;;;;;14.06;73.99;96260.09;5085242;28;20222;-82
2021/10/19 10:49:11;;;;;;;2.87;2.63;;;;;;;13.91;74.15;96258.16;5105160;28;20782;-81
2021/10/19 10:51:37;;;;;;;4.63;3.03;;;;;;;13.84;73.67;96250.09;5093231;28;20184;-80
2021/10/19 10:54:03;;;;;;;2.90;2.60;;;;;;;13.66;74.66;96251.91;5060470;28;20179;-82
2021/10/19 10:56:29;;;;;;;3.23;2.93;;;;;;;13.82;73.89;96245.03;5069724;28;20180;-81
2021/10/19 10:58:54;;;;;;;3.30;3.00;;;;;;;13.70;74.38;96248.88;5084261;28;20693;-81
2021/10/19 11:01:27;;;;;;;3.30;2.90;;;;;;;13.70;74.86;96243.63;5093127;28;20261;-81
2021/10/19 11:04:05;;;;;;;4.03;3.20;;;;;;;13.71;74.78;96236.63;5079642;28;20195;-80
2021/10/19 11:06:31;;;;;;;2.90;2.70;;;;;;;13.65;74.94;96243.25;5075840;28;20183;-81
2021/10/19 11:08:58;;;;;;;3.87;3.20;;;;;;;13.76;74.17;96242.19;5071924;28;20270;-80
2021/10/19 11:11:24;;;;;;;3.60;2.90;;;;;;;13.97;73.73;96245.34;5075840;28;20670;-81
2021/10/19 11:13:54;;;;;;;6.23;2.97;;;;;;;13.84;73.79;96237.88;5058816;28;20643;-80
2021/10/19 11:16:28;;;;;;;3.00;2.70;;;;;;;13.87;75.00;96237.59;5071256;28;20725;-80
2021/10/19 11:18:53;;;;;;;3.03;2.70;;;;;;;13.91;74.42;96239.88;5081024;28;20206;-80
2021/10/19 11:21:19;;;;;;;3.30;3.00;;;;;;;13.95;74.68;96236.00;5056425;28;20280;-79
2021/10/19 11:23:45;;;;;;;3.93;2.80;;;;;;;13.91;75.89;96232.06;5102609;28;20536;-80
2021/10/19 11:26:11;;;;;;;3.90;3.17;;;;;;;13.95;77.59;96230.78;5070407;28;20199;-80
2021/10/19 11:28:37;;;;;;;3.17;2.87;;;;;;;13.95;77.50;96236.00;5082957;28;20212;-80
2021/10/19 11:31:04;;;;;;;4.40;2.97;;;;;;;13.89;78.16;96232.22;5074556;28;20634;-79
2021/10/19 11:33:34;;;;;;;3.77;3.30;;;;;;;13.77;78.17;96228.19;5088750;28;20195;-80
2021/10/19 11:36:00;;;;;;;5.13;3.10;;;;;;;13.80;78.32;96231.31;5060151;28;20186;-79
2021/10/19 11:38:27;;;;;;;3.40;3.10;;;;;;;13.71;79.18;96224.41;5069552;28;20283;-79
2021/10/19 11:40:52;;;;;;;4.93;2.83;;;;;;;13.69;79.10;96221.09;5058068;28;20241;-81
2021/10/19 11:43:19;;;;;;;4.30;3.10;;;;;;;13.77;78.67;96221.16;5087560;28;20179;-81
2021/10/19 11:45:44;;;;;;;4.67;2.97;;;;;;;13.67;80.01;96212.59;5058818;28;20192;-81